Time;durP1;ratioP1;P1;durP2;ratioP2;P2;SDS_P1;SDS_P2;PMS_P1;PMS_P2;Temp;Humidity;BMP_temperature;BMP_pressure;BME280_temperature;BME280_humidity;BME280_pressure;Samples;Min_cycle;Max_cycle;Signal;HPM_P1;HPM_P2
2023/09/11 00:02:26;;;;;;;22.48;15.32;;;;;;;20.56;96.33;101280.09;5029090;28;20454;-70
2023/09/11 00:04:52;;;;;;;19.05;14.82;;;;;;;20.53;96.64;101272.16;5029477;28;20041;-69
2023/09/11 00:07:17;;;;;;;22.92;15.05;;;;;;;20.50;96.86;101266.94;5029103;28;20043;-69
2023/09/11 00:09:43;;;;;;;23.00;16.38;;;;;;;20.48;97.63;101271.78;5028027;28;20473;-69
2023/09/11 00:12:08;;;;;;;23.52;17.50;;;;;;;20.48;97.69;101266.25;5027534;28;20029;-68
2023/09/11 00:14:33;;;;;;;18.38;14.80;;;;;;;20.47;95.75;101270.00;5027880;28;20037;-69
2023/09/11 00:16:59;;;;;;;20.30;14.82;;;;;;;20.48;95.28;101261.59;5028983;28;20401;-68
2023/09/11 00:19:24;;;;;;;17.33;15.32;;;;;;;20.47;95.16;101262.63;5028885;28;20397;-68
2023/09/11 00:21:50;;;;;;;21.75;16.02;;;;;;;20.44;95.90;101265.69;5028751;28;20477;-69
2023/09/11 00:24:15;;;;;;;21.17;16.45;;;;;;;20.42;95.94;101258.56;5027785;28;20385;-68
2023/09/11 00:26:40;;;;;;;22.67;14.88;;;;;;;20.39;96.04;101259.78;5028107;28;20491;-68
2023/09/11 00:29:05;;;;;;;19.50;15.77;;;;;;;20.39;96.05;101257.88;5027544;28;20476;-68
2023/09/11 00:31:31;;;;;;;19.75;14.38;;;;;;;20.37;95.97;101257.16;5028777;28;20397;-68
2023/09/11 00:33:56;;;;;;;23.70;16.10;;;;;;;20.33;96.57;101261.31;5027370;28;20453;-69
2023/09/11 00:36:22;;;;;;;22.15;15.13;;;;;;;20.31;96.91;101260.59;5044408;28;20439;-68
2023/09/11 00:38:50;;;;;;;26.05;16.08;;;;;;;20.28;97.20;101255.38;5028600;28;20045;-68
2023/09/11 00:41:15;;;;;;;27.60;17.83;;;;;;;20.25;97.85;101261.28;5027544;28;20053;-69
2023/09/11 00:43:41;;;;;;;25.25;16.88;;;;;;;20.23;97.63;101262.44;5025837;28;20029;-68
2023/09/11 00:46:06;;;;;;;22.40;16.48;;;;;;;20.19;97.73;101256.41;5028495;28;20083;-68
2023/09/11 00:48:32;;;;;;;22.45;17.42;;;;;;;20.18;97.42;101249.13;5032502;28;20029;-68
2023/09/11 00:50:57;;;;;;;22.33;15.40;;;;;;;20.15;97.63;101251.38;5047921;28;20040;-67
2023/09/11 00:53:24;;;;;;;24.80;16.45;;;;;;;20.13;98.32;101246.00;5048375;28;20391;-68
2023/09/11 00:55:50;;;;;;;22.45;16.00;;;;;;;20.12;97.30;101261.69;5025775;28;20034;-68
2023/09/11 00:58:16;;;;;;;19.85;14.98;;;;;;;20.09;96.86;101253.72;5022869;28;20113;-68
2023/09/11 01:00:44;;;;;;;20.13;15.27;;;;;;;20.08;96.52;101254.75;5028032;28;20092;-68
2023/09/11 01:03:11;;;;;;;22.27;15.07;;;;;;;20.05;96.90;101256.97;5026222;28;20037;-69
2023/09/11 01:05:37;;;;;;;19.80;14.77;;;;;;;20.03;97.11;101248.00;5028117;28;20029;-68
2023/09/11 01:08:03;;;;;;;19.75;15.65;;;;;;;20.00;97.74;101256.59;5039174;28;20068;-68
2023/09/11 01:10:29;;;;;;;20.52;14.82;;;;;;;20.00;97.00;101249.19;5047948;28;20108;-68
2023/09/11 01:12:55;;;;;;;24.38;15.45;;;;;;;19.96;97.04;101253.31;5032716;28;20037;-71
2023/09/11 01:15:23;;;;;;;23.77;15.23;;;;;;;19.93;97.38;101248.13;5028388;28;20072;-68
2023/09/11 01:17:54;;;;;;;22.00;14.88;;;;;;;19.90;97.74;101253.09;5025956;28;20068;-68
2023/09/11 01:20:29;;;;;;;21.53;16.30;;;;;;;19.86;98.61;101255.28;5027439;28;20037;-68
2023/09/11 01:23:33;;;;;;;23.90;16.83;;;;;;;19.83;98.12;101250.97;5027341;28;20037;-71
2023/09/11 01:26:20;;;;;;;21.92;17.15;;;;;;;19.82;97.70;101243.72;5026063;28;20120;-68
2023/09/11 01:29:08;;;;;;;24.83;17.08;;;;;;;19.79;99.61;101243.19;5026469;28;20511;-70
2023/09/11 01:31:35;;;;;;;20.05;15.77;;;;;;;19.74;98.27;101243.66;5027781;28;20057;-68
2023/09/11 01:34:02;;;;;;;21.65;16.40;;;;;;;19.72;98.23;101247.59;5032383;28;20140;-69
2023/09/11 01:36:28;;;;;;;19.88;15.55;;;;;;;19.71;97.99;101245.88;5026223;28;20662;-68
2023/09/11 01:38:54;;;;;;;19.65;15.73;;;;;;;19.67;97.92;101234.28;5027205;28;20052;-68
2023/09/11 01:41:22;;;;;;;19.27;15.85;;;;;;;19.64;98.78;101245.66;5026138;28;20041;-68
2023/09/11 01:43:48;;;;;;;19.67;15.90;;;;;;;19.62;99.41;101244.94;5045764;28;20035;-68
2023/09/11 01:46:17;;;;;;;22.38;15.00;;;;;;;19.58;98.54;101244.38;5029554;28;20052;-67
2023/09/11 01:48:44;;;;;;;22.90;17.10;;;;;;;19.54;100.00;101239.34;5045547;28;20045;-69
2023/09/11 01:51:11;;;;;;;27.30;15.85;;;;;;;19.51;98.03;101236.91;5031029;28;20433;-67
2023/09/11 01:53:37;;;;;;;20.92;15.93;;;;;;;19.51;99.58;101236.91;5026882;28;20483;-67
2023/09/11 01:56:04;;;;;;;17.77;14.35;;;;;;;19.51;98.57;101242.41;5026989;28;20045;-69
2023/09/11 01:58:31;;;;;;;24.10;16.45;;;;;;;19.48;99.40;101234.44;5024887;28;20431;-67
2023/09/11 02:00:57;;;;;;;25.75;15.57;;;;;;;19.47;99.30;101232.72;5025808;28;20077;-68
2023/09/11 02:03:23;;;;;;;21.75;15.60;;;;;;;19.46;99.55;101231.84;5027382;28;20496;-67
2023/09/11 02:05:48;;;;;;;22.15;15.75;;;;;;;19.46;99.25;101231.84;5034765;28;20033;-68
2023/09/11 02:08:14;;;;;;;21.10;14.65;;;;;;;19.43;98.08;101228.53;5045300;28;20033;-67
2023/09/11 02:10:39;;;;;;;20.75;15.48;;;;;;;19.40;98.77;101221.47;5045820;28;20033;-67
2023/09/11 02:13:04;;;;;;;21.52;16.00;;;;;;;19.35;99.67;101218.28;5030673;28;20074;-68
2023/09/11 02:15:30;;;;;;;21.27;15.45;;;;;;;19.36;99.08;101222.81;5041735;28;20128;-68
2023/09/11 02:17:55;;;;;;;20.52;15.43;;;;;;;19.34;98.90;101222.06;5025500;28;20025;-68
2023/09/11 02:20:20;;;;;;;19.15;14.95;;;;;;;19.32;98.18;101215.88;5027952;28;20128;-68
2023/09/11 02:22:46;;;;;;;20.75;15.40;;;;;;;19.31;98.25;101226.03;5042351;28;20124;-67
2023/09/11 02:25:11;;;;;;;22.27;14.20;;;;;;;19.27;97.73;101219.09;5045452;28;20029;-68
2023/09/11 02:27:36;;;;;;;21.42;14.80;;;;;;;19.25;98.46;101217.50;5028747;28;20045;-68
2023/09/11 02:30:02;;;;;;;21.88;15.60;;;;;;;19.22;98.40;101215.94;5027341;28;20088;-68
2023/09/11 02:32:27;;;;;;;18.90;15.38;;;;;;;19.19;98.76;101207.13;5047681;28;20446;-68
2023/09/11 02:34:53;;;;;;;24.30;15.02;;;;;;;19.17;99.15;101209.19;5051212;28;20572;-67
2023/09/11 02:37:18;;;;;;;22.23;16.17;;;;;;;19.14;100.00;101215.00;5050492;28;20037;-69
2023/09/11 02:39:44;;;;;;;20.35;14.90;;;;;;;19.10;98.53;101209.78;5041763;28;20028;-67
2023/09/11 02:42:09;;;;;;;21.60;15.45;;;;;;;19.08;99.25;101208.22;5041478;28;20488;-67
2023/09/11 02:44:35;;;;;;;21.02;15.65;;;;;;;19.05;99.42;101211.28;5029595;28;20104;-67
2023/09/11 02:47:00;;;;;;;23.88;15.30;;;;;;;19.01;99.55;101210.75;5030643;28;20044;-67
2023/09/11 02:49:25;;;;;;;19.60;14.85;;;;;;;19.01;99.44;101209.88;5044684;28;20033;-68
2023/09/11 02:51:51;;;;;;;23.65;15.40;;;;;;;18.99;98.81;101209.19;5046074;28;20064;-68
2023/09/11 02:54:16;;;;;;;21.23;14.57;;;;;;;18.95;99.79;101208.63;5030004;28;20509;-67
2023/09/11 02:56:41;;;;;;;19.33;13.85;;;;;;;18.95;99.43;101208.63;5029531;28;20532;-67
2023/09/11 02:59:07;;;;;;;22.02;15.38;;;;;;;18.94;100.00;101208.78;5029387;28;20041;-67
2023/09/11 03:01:32;;;;;;;19.13;14.98;;;;;;;18.91;99.81;101203.56;5028857;28;20041;-69
2023/09/11 03:03:58;;;;;;;21.02;14.20;;;;;;;18.89;98.85;101197.34;5029802;28;20569;-67
2023/09/11 03:06:24;;;;;;;18.83;14.38;;;;;;;18.89;99.52;101205.63;5028695;28;20025;-67
2023/09/11 03:08:49;;;;;;;20.10;15.80;;;;;;;18.84;99.86;101204.22;5045483;28;20036;-68
2023/09/11 03:11:15;;;;;;;21.10;15.05;;;;;;;18.84;99.12;101200.59;5030062;28;20424;-67
2023/09/11 03:13:40;;;;;;;23.77;15.48;;;;;;;18.80;99.12;101190.88;5042348;28;20416;-67
2023/09/11 03:16:11;;;;;;;19.88;14.95;;;;;;;18.77;99.20;101194.81;5045300;28;20477;-67
2023/09/11 03:18:38;;;;;;;19.60;13.73;;;;;;;18.74;99.64;101194.25;5046614;28;20027;-68
2023/09/11 03:21:04;;;;;;;17.38;13.32;;;;;;;18.74;99.39;101195.13;5048338;28;20040;-68
2023/09/11 03:23:30;;;;;;;19.70;14.82;;;;;;;18.67;100.00;101185.72;5048127;28;21803;-67
2023/09/11 03:25:56;;;;;;;21.42;13.27;;;;;;;18.67;99.88;101179.34;5048168;28;20020;-68
2023/09/11 03:28:21;;;;;;;23.00;13.55;;;;;;;18.65;98.99;101182.22;5032252;28;20038;-67
2023/09/11 03:30:47;;;;;;;20.40;14.25;;;;;;;18.61;98.74;101181.69;5046725;28;20067;-67
2023/09/11 03:33:12;;;;;;;17.38;12.98;;;;;;;18.59;98.51;101172.69;5049231;28;20072;-68
2023/09/11 03:35:38;;;;;;;17.33;12.57;;;;;;;18.55;99.03;101171.28;5041230;28;20116;-68
2023/09/11 03:38:03;;;;;;;16.27;12.02;;;;;;;18.53;99.53;101172.47;5044381;28;20037;-68
2023/09/11 03:40:29;;;;;;;17.38;12.20;;;;;;;18.50;99.23;101176.38;5028295;28;20044;-68
2023/09/11 03:42:55;;;;;;;18.50;14.05;;;;;;;18.46;100.00;101172.19;5044341;28;20098;-68
2023/09/11 03:45:21;;;;;;;17.80;13.82;;;;;;;18.45;100.00;101170.47;5043843;28;20473;-67
2023/09/11 03:47:46;;;;;;;16.45;12.32;;;;;;;18.43;99.53;101164.25;5029126;28;20048;-67
2023/09/11 03:50:12;;;;;;;18.23;13.77;;;;;;;18.42;99.99;101165.28;5028682;28;20065;-68
2023/09/11 03:52:37;;;;;;;16.95;12.90;;;;;;;18.40;99.59;101166.44;5028999;28;20033;-68
2023/09/11 03:55:03;;;;;;;20.67;12.70;;;;;;;18.38;99.32;101161.09;5036578;28;20480;-67
2023/09/11 03:57:29;;;;;;;19.40;14.15;;;;;;;18.37;100.00;101153.84;5033817;28;20132;-68
2023/09/11 03:59:54;;;;;;;20.42;13.73;;;;;;;18.37;100.00;101151.09;5047412;28;20492;-70
2023/09/11 04:02:20;;;;;;;24.27;13.35;;;;;;;18.36;100.00;101147.47;5045555;28;20087;-68
2023/09/11 04:04:45;;;;;;;20.08;14.00;;;;;;;18.36;100.00;101149.34;5043739;28;20025;-68
2023/09/11 04:07:10;;;;;;;20.38;14.65;;;;;;;18.35;100.00;101142.13;5027725;28;20052;-69
2023/09/11 04:09:36;;;;;;;20.17;14.48;;;;;;;18.33;100.00;101144.19;5028789;28;20050;-67
2023/09/11 04:12:02;;;;;;;26.48;14.25;;;;;;;18.33;100.00;101146.94;5031954;28;20020;-67
2023/09/11 04:14:28;;;;;;;22.20;14.40;;;;;;;18.31;100.00;101138.81;5046542;28;20132;-68
2023/09/11 04:16:53;;;;;;;16.92;14.27;;;;;;;18.31;100.00;101138.81;5031531;28;20120;-68
2023/09/11 04:19:19;;;;;;;17.65;13.70;;;;;;;18.33;100.00;101141.41;5047038;28;20048;-67
2023/09/11 04:21:44;;;;;;;21.13;15.00;;;;;;;18.30;100.00;101137.06;5027460;28;20048;-68
2023/09/11 04:24:12;;;;;;;19.52;14.63;;;;;;;18.27;100.00;101140.13;5043659;28;20036;-69
2023/09/11 04:26:39;;;;;;;19.90;14.27;;;;;;;18.23;100.00;101133.22;5043009;28;20039;-68
2023/09/11 04:29:10;;;;;;;17.10;13.93;;;;;;;18.23;100.00;101132.31;5026311;28;20070;-67
2023/09/11 04:31:37;;;;;;;21.88;13.70;;;;;;;18.23;100.00;101129.56;5032112;28;20128;-69
2023/09/11 04:34:02;;;;;;;19.50;15.55;;;;;;;18.21;100.00;101117.84;5030386;28;20034;-68
2023/09/11 04:36:27;;;;;;;19.40;13.73;;;;;;;18.22;100.00;101117.69;5043602;28;20037;-68
2023/09/11 04:38:53;;;;;;;23.05;14.52;;;;;;;18.21;100.00;101121.47;5044067;28;20095;-68
2023/09/11 04:41:20;;;;;;;17.35;14.43;;;;;;;18.22;100.00;101122.34;5045399;28;20044;-67
2023/09/11 04:43:46;;;;;;;19.08;14.10;;;;;;;18.22;100.00;101130.59;5025558;28;20030;-67
2023/09/11 04:46:12;;;;;;;19.83;13.63;;;;;;;18.22;100.00;101130.59;5043598;28;20389;-68
2023/09/11 04:48:37;;;;;;;17.88;14.10;;;;;;;18.21;100.00;101134.38;5028000;28;20045;-68
2023/09/11 04:51:03;;;;;;;18.75;13.52;;;;;;;18.19;100.00;101134.53;5040441;28;20087;-69
2023/09/11 04:53:28;;;;;;;24.17;14.13;;;;;;;18.18;100.00;101135.53;5028169;28;20022;-69
2023/09/11 04:55:56;;;;;;;21.67;14.43;;;;;;;18.16;100.00;101133.97;5022321;28;20038;-70
2023/09/11 04:58:21;;;;;;;24.90;14.43;;;;;;;18.19;100.00;101141.94;5023036;28;20041;-68
2023/09/11 05:00:46;;;;;;;22.95;15.30;;;;;;;18.18;100.00;101135.53;5026697;28;20091;-68
2023/09/11 05:03:12;;;;;;;19.55;13.82;;;;;;;18.20;100.00;101136.28;5036218;28;20028;-68
2023/09/11 05:05:40;;;;;;;23.98;13.32;;;;;;;18.18;100.00;101138.28;5046732;28;20484;-68
2023/09/11 05:08:07;;;;;;;23.27;14.35;;;;;;;18.22;100.00;101136.09;5041776;28;20029;-67
2023/09/11 05:10:33;;;;;;;15.88;13.10;;;;;;;18.24;100.00;101139.59;5043229;28;20040;-67
2023/09/11 05:12:58;;;;;;;18.25;13.88;;;;;;;18.21;100.00;101134.38;5040331;28;20021;-68
2023/09/11 05:15:24;;;;;;;22.10;14.15;;;;;;;18.20;100.00;101133.53;5027042;28;20075;-68
2023/09/11 05:17:50;;;;;;;21.45;13.57;;;;;;;18.21;100.00;101145.41;5042789;28;20037;-68
2023/09/11 05:20:16;;;;;;;17.45;13.32;;;;;;;18.20;100.00;101144.53;5027871;28;20065;-68
2023/09/11 05:22:41;;;;;;;22.45;13.90;;;;;;;18.21;100.00;101149.00;5026781;28;20138;-68
2023/09/11 05:25:08;;;;;;;18.52;13.55;;;;;;;18.23;100.00;101146.09;5043098;28;20044;-68
2023/09/11 05:27:33;;;;;;;19.20;13.55;;;;;;;18.22;100.00;101136.09;5038643;28;20029;-68
2023/09/11 05:29:59;;;;;;;18.65;14.27;;;;;;;18.26;100.00;101145.78;5032772;28;20511;-68
2023/09/11 05:32:25;;;;;;;22.40;14.38;;;;;;;18.27;100.00;101144.78;5048221;28;20025;-70
2023/09/11 05:34:51;;;;;;;20.42;12.77;;;;;;;18.26;100.00;101149.41;5047851;28;20033;-68
2023/09/11 05:37:17;;;;;;;22.85;14.77;;;;;;;18.25;100.00;101146.81;5046066;28;20047;-68
2023/09/11 05:39:43;;;;;;;23.35;13.48;;;;;;;18.27;100.00;101150.28;5047388;28;20124;-68
2023/09/11 05:42:09;;;;;;;20.02;13.73;;;;;;;18.27;100.00;101156.66;5039569;28;20036;-68
2023/09/11 05:44:35;;;;;;;19.98;14.68;;;;;;;18.28;100.00;101155.66;5026628;28;20038;-67
2023/09/11 05:47:00;;;;;;;20.02;13.65;;;;;;;18.31;100.00;101159.97;5027153;28;20020;-68
2023/09/11 05:49:25;;;;;;;16.38;13.05;;;;;;;18.32;100.00;101165.31;5027082;28;20038;-68
2023/09/11 05:51:51;;;;;;;23.05;13.25;;;;;;;18.34;100.00;101160.53;5027866;28;20132;-68
2023/09/11 05:54:16;;;;;;;26.13;13.85;;;;;;;18.39;100.00;101160.06;5027115;28;20076;-69
2023/09/11 05:56:41;;;;;;;21.17;13.13;;;;;;;18.43;100.00;101161.50;5026480;28;20056;-69
2023/09/11 05:59:07;;;;;;;20.73;14.50;;;;;;;18.46;100.00;101166.69;5026264;28;20087;-68
2023/09/11 06:01:32;;;;;;;23.35;14.60;;;;;;;18.47;100.00;101170.34;5042770;28;20068;-68
2023/09/11 06:03:58;;;;;;;18.35;14.25;;;;;;;18.48;100.00;101170.19;5027032;28;20488;-68
2023/09/11 06:06:23;;;;;;;19.10;13.63;;;;;;;18.51;100.00;101171.75;5028141;28;20041;-68
2023/09/11 06:08:49;;;;;;;22.02;15.27;;;;;;;18.55;100.00;101176.78;5031176;28;20033;-69
2023/09/11 06:11:14;;;;;;;22.02;16.00;;;;;;;18.61;100.00;101175.31;5029972;28;20033;-69
2023/09/11 06:13:41;;;;;;;21.60;14.18;;;;;;;18.68;100.00;101172.78;5029798;28;20397;-68
2023/09/11 06:16:06;;;;;;;21.45;14.18;;;;;;;18.75;100.00;101176.72;5031500;28;20029;-69
2023/09/11 06:18:32;;;;;;;24.98;16.02;;;;;;;18.82;100.00;101177.81;5049284;28;20047;-68
2023/09/11 06:20:58;;;;;;;23.08;14.40;;;;;;;18.88;100.00;101182.69;5051089;28;20037;-69
2023/09/11 06:23:23;;;;;;;17.40;13.68;;;;;;;18.94;100.00;101170.19;5049961;28;20158;-68
2023/09/11 06:25:48;;;;;;;18.15;12.50;;;;;;;19.02;100.00;101178.50;5050940;28;20029;-68
2023/09/11 06:28:13;;;;;;;21.52;13.27;;;;;;;19.06;100.00;101183.56;5034571;28;20306;-68
2023/09/11 06:30:39;;;;;;;19.33;13.32;;;;;;;19.09;100.00;101172.22;5029593;28;20041;-68
2023/09/11 06:33:05;;;;;;;21.75;12.70;;;;;;;19.14;100.00;101165.34;5029306;28;20041;-69
2023/09/11 06:35:30;;;;;;;18.90;13.32;;;;;;;19.22;100.00;101177.34;5029488;28;20128;-68
2023/09/11 06:37:55;;;;;;;17.25;11.52;;;;;;;19.27;100.00;101180.47;5029845;28;20061;-69
2023/09/11 06:40:21;;;;;;;20.67;12.38;;;;;;;19.34;100.00;101183.44;5031452;28;20029;-69
2023/09/11 06:42:46;;;;;;;18.27;12.10;;;;;;;19.42;100.00;101189.03;5040451;28;20052;-68
2023/09/11 06:45:11;;;;;;;18.15;11.55;;;;;;;19.51;100.00;101187.22;5050522;28;20036;-68
2023/09/11 06:47:37;;;;;;;16.27;11.77;;;;;;;19.59;100.00;101190.03;5050782;28;20118;-68
2023/09/11 06:50:02;;;;;;;25.83;12.88;;;;;;;19.64;100.00;101189.59;5050650;28;20183;-68
2023/09/11 06:52:28;;;;;;;16.77;10.68;;;;;;;19.62;99.78;101184.22;5048640;28;20045;-69
2023/09/11 06:54:54;;;;;;;14.88;11.55;;;;;;;19.63;99.32;101188.69;5047856;28;20039;-68
2023/09/11 06:57:20;;;;;;;20.23;12.10;;;;;;;19.64;98.31;101190.47;5029511;28;20056;-70
2023/09/11 06:59:45;;;;;;;20.95;12.00;;;;;;;19.65;97.73;101191.31;5029407;28;20444;-68
2023/09/11 07:02:10;;;;;;;14.77;11.13;;;;;;;19.65;97.93;101192.19;5030796;28;20037;-69
2023/09/11 07:04:36;;;;;;;15.88;11.73;;;;;;;19.67;97.70;101192.00;5029219;28;20061;-68
2023/09/11 07:07:01;;;;;;;22.42;12.00;;;;;;;19.69;97.58;101185.31;5045729;28;20068;-70
2023/09/11 07:09:26;;;;;;;20.33;13.10;;;;;;;19.71;97.50;101174.09;5029412;28;20124;-68
2023/09/11 07:11:56;;;;;;;16.23;12.05;;;;;;;19.75;97.15;101172.75;5045431;28;20124;-68
2023/09/11 07:14:22;;;;;;;20.23;11.88;;;;;;;19.79;96.69;101180.53;5029695;28;20080;-69
2023/09/11 07:16:48;;;;;;;17.45;12.70;;;;;;;19.82;95.90;101180.22;5030252;28;20103;-68
2023/09/11 07:19:14;;;;;;;18.58;12.20;;;;;;;19.85;97.19;101168.84;5045319;28;20530;-69
2023/09/11 07:21:40;;;;;;;19.83;12.95;;;;;;;19.87;96.57;101164.03;5050024;28;20487;-68
2023/09/11 07:24:06;;;;;;;23.55;13.88;;;;;;;19.94;96.03;101171.66;5041562;28;20100;-70
2023/09/11 07:26:31;;;;;;;22.45;13.25;;;;;;;19.97;97.36;101174.09;5044776;28;20875;-69
2023/09/11 07:29:02;;;;;;;27.85;13.27;;;;;;;19.98;96.58;101168.41;5024303;28;20032;-69
2023/09/11 07:31:28;;;;;;;21.77;13.57;;;;;;;20.02;95.85;101177.22;5028930;28;20037;-69
2023/09/11 07:33:54;;;;;;;20.67;13.55;;;;;;;20.06;97.29;101173.09;5028465;28;20079;-69
2023/09/11 07:36:19;;;;;;;22.80;14.10;;;;;;;20.08;97.04;101177.41;5028652;28;20044;-68
2023/09/11 07:38:45;;;;;;;20.67;14.18;;;;;;;20.10;96.47;101172.63;5028174;28;20025;-69
2023/09/11 07:41:13;;;;;;;25.30;15.68;;;;;;;20.16;96.85;101172.97;5046969;28;20065;-68
2023/09/11 07:43:39;;;;;;;28.77;16.67;;;;;;;20.24;96.11;101184.94;5030545;28;20520;-69
2023/09/11 07:46:04;;;;;;;23.55;15.15;;;;;;;20.32;96.53;101193.25;5029744;28;20120;-69
2023/09/11 07:48:29;;;;;;;28.02;16.05;;;;;;;20.38;96.33;101187.06;5044344;28;20037;-69
2023/09/11 07:50:56;;;;;;;25.40;17.23;;;;;;;20.46;96.28;101193.66;5028899;28;20032;-71
2023/09/11 07:53:22;;;;;;;27.42;16.25;;;;;;;20.53;96.31;101194.75;5028473;28;20576;-68
2023/09/11 07:55:47;;;;;;;26.50;17.20;;;;;;;20.59;97.69;101192.16;5018725;28;20503;-69
2023/09/11 07:58:13;;;;;;;28.15;17.52;;;;;;;20.64;96.74;101202.72;5033598;28;20045;-68
2023/09/11 08:00:38;;;;;;;29.02;19.50;;;;;;;20.69;97.50;101196.69;5009459;28;20038;-68
2023/09/11 08:03:04;;;;;;;30.48;19.33;;;;;;;20.78;95.38;101203.97;5030703;28;20730;-68
2023/09/11 08:05:29;;;;;;;25.98;17.05;;;;;;;20.94;95.72;101201.25;5049106;28;20057;-69
2023/09/11 08:07:54;;;;;;;27.02;18.38;;;;;;;21.06;97.79;101210.09;5048772;28;20077;-70
2023/09/11 08:10:20;;;;;;;28.98;19.52;;;;;;;21.13;95.40;101214.78;5044433;28;20061;-68
2023/09/11 08:12:45;;;;;;;29.50;18.27;;;;;;;21.30;96.75;101217.53;5036302;28;20037;-68
2023/09/11 08:15:11;;;;;;;26.70;18.02;;;;;;;21.42;94.66;101209.81;5048993;28;20060;-68
2023/09/11 08:17:36;;;;;;;34.53;18.50;;;;;;;21.49;93.85;101208.06;5048486;28;20060;-68
2023/09/11 08:20:02;;;;;;;31.13;20.13;;;;;;;21.54;93.33;101217.59;5042882;28;20052;-67
2023/09/11 08:22:28;;;;;;;33.17;20.25;;;;;;;21.58;92.47;101218.97;5028568;28;20025;-68
2023/09/11 08:24:53;;;;;;;32.75;20.80;;;;;;;21.64;93.31;101218.28;5029301;28;20026;-69
2023/09/11 08:27:18;;;;;;;24.42;18.08;;;;;;;21.75;93.37;101217.06;5027866;28;20091;-68
2023/09/11 08:29:44;;;;;;;24.13;18.08;;;;;;;21.95;92.75;101212.00;5027434;28;20049;-68
2023/09/11 08:32:09;;;;;;;26.60;18.60;;;;;;;22.07;91.97;101209.72;5028243;28;20043;-67
2023/09/11 08:34:34;;;;;;;32.85;20.73;;;;;;;22.23;91.13;101206.06;5028224;28;20099;-67
2023/09/11 08:37:00;;;;;;;36.00;19.77;;;;;;;22.33;89.86;101210.34;5028631;28;20049;-68
2023/09/11 08:39:25;;;;;;;27.83;17.58;;;;;;;22.38;91.33;101209.81;5042906;28;20082;-69
2023/09/11 08:41:52;;;;;;;32.35;21.48;;;;;;;22.36;87.70;101209.13;5044405;28;20540;-69
2023/09/11 08:44:17;;;;;;;26.25;17.35;;;;;;;22.44;90.17;101211.88;5042912;28;20044;-68
2023/09/11 08:46:45;;;;;;;30.10;19.98;;;;;;;22.49;88.35;101206.66;5028633;28;20041;-67
2023/09/11 08:49:15;;;;;;;26.73;18.42;;;;;;;22.60;89.03;101210.94;5027973;28;20593;-69
2023/09/11 08:51:53;;;;;;;31.67;17.88;;;;;;;22.65;89.50;101222.34;5028002;28;20059;-69
2023/09/11 08:54:20;;;;;;;28.63;17.92;;;;;;;22.78;89.49;101219.84;5027936;28;20048;-67
2023/09/11 08:56:46;;;;;;;25.58;17.67;;;;;;;22.90;89.32;101218.44;5029061;28;20099;-68
2023/09/11 08:59:17;;;;;;;27.63;19.50;;;;;;;23.06;87.41;101214.69;5027083;28;20107;-68
2023/09/11 09:01:43;;;;;;;31.08;19.10;;;;;;;23.23;85.75;101218.22;5026957;28;20041;-67
2023/09/11 09:04:11;;;;;;;26.00;19.23;;;;;;;23.33;85.16;101221.59;5027361;28;20048;-67
2023/09/11 09:06:37;;;;;;;23.67;17.20;;;;;;;23.47;87.04;101219.94;5028225;28;20484;-69
2023/09/11 09:09:02;;;;;;;29.02;19.27;;;;;;;23.49;85.29;101211.41;5027826;28;20056;-68
2023/09/11 09:11:28;;;;;;;28.60;18.77;;;;;;;23.48;83.62;101210.53;5028051;28;20473;-67
2023/09/11 09:13:55;;;;;;;30.50;17.65;;;;;;;23.52;83.21;101209.13;5026851;28;20052;-67
2023/09/11 09:16:20;;;;;;;24.02;17.77;;;;;;;23.58;84.20;101211.13;5028626;28;20033;-69
2023/09/11 09:18:49;;;;;;;30.35;18.30;;;;;;;23.65;83.16;101214.94;5027668;28;20041;-68
2023/09/11 09:21:16;;;;;;;27.38;18.40;;;;;;;23.68;83.77;101217.31;5027941;28;20694;-67
2023/09/11 09:23:41;;;;;;;25.98;17.00;;;;;;;23.79;85.63;101209.59;5027068;28;20128;-68
2023/09/11 09:26:08;;;;;;;26.00;17.67;;;;;;;23.93;84.44;101217.97;5027686;28;20100;-69
2023/09/11 09:28:34;;;;;;;30.55;18.85;;;;;;;24.15;81.81;101221.72;5026329;28;20041;-68
2023/09/11 09:31:00;;;;;;;31.85;16.90;;;;;;;24.36;83.12;101217.31;5027849;28;20041;-68
2023/09/11 09:33:25;;;;;;;25.70;16.23;;;;;;;24.70;82.99;101227.84;5027110;28;20112;-68
2023/09/11 09:35:51;;;;;;;31.02;17.48;;;;;;;24.88;79.97;101221.88;5026115;28;20021;-69
2023/09/11 09:38:20;;;;;;;28.05;16.30;;;;;;;25.17;79.88;101213.44;5046550;28;20041;-68
2023/09/11 09:40:46;;;;;;;18.67;13.35;;;;;;;25.70;82.31;101218.69;5045754;28;20103;-69
2023/09/11 09:43:18;;;;;;;29.10;16.23;;;;;;;25.91;74.36;101215.88;5031664;28;20591;-68
2023/09/11 09:45:44;;;;;;;25.08;14.77;;;;;;;26.09;75.94;101212.56;5027778;28;20029;-68
2023/09/11 09:48:11;;;;;;;20.45;14.07;;;;;;;26.43;73.64;101216.44;5027193;28;20130;-69
2023/09/11 09:50:50;;;;;;;21.05;14.05;;;;;;;26.63;75.55;101223.00;5026693;28;20045;-68
2023/09/11 09:53:21;;;;;;;18.02;12.25;;;;;;;26.96;72.96;101217.56;5007608;28;20046;-68
2023/09/11 09:55:46;;;;;;;21.48;14.40;;;;;;;27.06;70.18;101208.75;5007513;28;20066;-68
2023/09/11 09:58:12;;;;;;;21.73;13.80;;;;;;;27.20;68.56;101216.13;5014285;28;20050;-69
2023/09/11 10:00:37;;;;;;;22.42;11.90;;;;;;;27.52;72.38;101210.81;5007519;28;20042;-69
2023/09/11 10:03:03;;;;;;;21.30;13.85;;;;;;;27.64;66.00;101206.28;5007217;28;20482;-68
2023/09/11 10:05:29;;;;;;;19.92;13.40;;;;;;;27.82;66.55;101207.63;5025675;28;20026;-69
2023/09/11 10:07:58;;;;;;;21.88;14.45;;;;;;;28.00;68.19;101216.19;5027862;28;20096;-69
2023/09/11 10:10:29;;;;;;;22.60;14.77;;;;;;;28.27;69.63;101216.16;5029547;28;20101;-68
2023/09/11 10:13:12;;;;;;;27.45;15.35;;;;;;;28.58;68.45;101215.44;5035118;28;20141;-70
2023/09/11 10:15:40;;;;;;;16.85;13.93;;;;;;;28.72;63.77;101212.41;5027379;28;20041;-69
2023/09/11 10:18:08;;;;;;;22.63;12.85;;;;;;;28.79;67.36;101220.75;5026508;28;20047;-68
2023/09/11 10:20:33;;;;;;;23.63;13.48;;;;;;;29.00;63.55;101215.94;5027163;28;20163;-70
2023/09/11 10:23:01;;;;;;;19.15;12.23;;;;;;;29.35;65.33;101210.78;5026609;28;20116;-68
2023/09/11 10:25:28;;;;;;;20.92;11.98;;;;;;;29.60;62.43;101202.41;5027223;28;20037;-68
2023/09/11 10:27:57;;;;;;;18.58;13.60;;;;;;;29.56;61.07;101209.56;5025963;28;20067;-68
2023/09/11 10:30:26;;;;;;;26.33;14.38;;;;;;;29.59;60.26;101206.31;5043052;28;20404;-68
2023/09/11 10:32:57;;;;;;;21.65;13.55;;;;;;;29.66;59.84;101195.91;5027916;28;20018;-68
2023/09/11 10:35:25;;;;;;;18.90;12.50;;;;;;;29.68;60.62;101186.16;5047522;28;20063;-69
2023/09/11 10:37:56;;;;;;;17.73;11.95;;;;;;;29.74;61.33;101190.84;5047421;28;20033;-69
2023/09/11 10:40:32;;;;;;;16.60;12.35;;;;;;;29.92;57.33;101198.44;5044803;28;20726;-68
2023/09/11 10:42:58;;;;;;;17.02;11.88;;;;;;;29.97;59.35;101189.34;5034296;28;20469;-68
2023/09/11 10:45:34;;;;;;;14.07;10.32;;;;;;;30.12;60.47;101201.03;5027703;28;20470;-68
2023/09/11 10:48:01;;;;;;;19.40;10.25;;;;;;;30.40;57.75;101197.75;5026578;28;20037;-69
2023/09/11 10:50:42;;;;;;;13.55;10.27;;;;;;;30.40;58.84;101202.50;5026555;28;20098;-69
2023/09/11 10:53:08;;;;;;;17.35;9.75;;;;;;;30.43;58.75;101193.63;5028302;28;20528;-69
2023/09/11 10:55:34;;;;;;;14.88;8.55;;;;;;;30.79;56.70;101189.97;5021771;28;20113;-68
2023/09/11 10:58:03;;;;;;;15.15;8.38;;;;;;;30.95;55.26;101194.06;5023919;28;20103;-68
2023/09/11 11:00:28;;;;;;;16.17;8.55;;;;;;;31.08;53.68;101193.03;5029669;28;20528;-70
2023/09/11 11:02:57;;;;;;;18.55;8.75;;;;;;;31.09;54.76;101187.16;5049324;28;20048;-68
2023/09/11 11:05:23;;;;;;;11.73;8.48;;;;;;;31.13;53.21;101188.41;5050928;28;20484;-68